sensor_id;sensor_type;location;lat;lon;timestamp;P1;durP1;ratioP1;P2;durP2;ratioP2
16731;SDS011;8484;50.904;9.192;2023-04-06T00:00:34;8.57;;;5.80;;
16731;SDS011;8484;50.904;9.192;2023-04-06T00:03:01;6.90;;;5.90;;
16731;SDS011;8484;50.904;9.192;2023-04-06T00:05:29;6.40;;;5.87;;
16731;SDS011;8484;50.904;9.192;2023-04-06T00:07:57;6.20;;;5.60;;
16731;SDS011;8484;50.904;9.192;2023-04-06T00:10:24;5.50;;;5.10;;
16731;SDS011;8484;50.904;9.192;2023-04-06T00:12:51;6.03;;;5.43;;
16731;SDS011;8484;50.904;9.192;2023-04-06T00:15:18;5.53;;;5.10;;
16731;SDS011;8484;50.904;9.192;2023-04-06T00:17:47;5.33;;;4.83;;
16731;SDS011;8484;50.904;9.192;2023-04-06T00:20:14;5.00;;;4.60;;
16731;SDS011;8484;50.904;9.192;2023-04-06T00:22:43;5.30;;;4.80;;
16731;SDS011;8484;50.904;9.192;2023-04-06T00:25:10;5.23;;;4.83;;
16731;SDS011;8484;50.904;9.192;2023-04-06T00:27:37;5.30;;;4.90;;
16731;SDS011;8484;50.904;9.192;2023-04-06T00:30:05;5.47;;;5.00;;
16731;SDS011;8484;50.904;9.192;2023-04-06T00:32:33;5.37;;;4.97;;
16731;SDS011;8484;50.904;9.192;2023-04-06T00:35:03;5.33;;;4.80;;
16731;SDS011;8484;50.904;9.192;2023-04-06T00:37:31;5.70;;;5.00;;
16731;SDS011;8484;50.904;9.192;2023-04-06T00:39:58;5.60;;;5.10;;
16731;SDS011;8484;50.904;9.192;2023-04-06T00:42:25;5.10;;;4.60;;
16731;SDS011;8484;50.904;9.192;2023-04-06T00:44:52;5.17;;;4.70;;
16731;SDS011;8484;50.904;9.192;2023-04-06T00:47:19;5.00;;;4.60;;
16731;SDS011;8484;50.904;9.192;2023-04-06T00:49:47;5.57;;;4.60;;
16731;SDS011;8484;50.904;9.192;2023-04-06T00:52:15;4.90;;;4.50;;
16731;SDS011;8484;50.904;9.192;2023-04-06T00:54:42;4.63;;;4.33;;
16731;SDS011;8484;50.904;9.192;2023-04-06T00:57:09;5.13;;;4.70;;
16731;SDS011;8484;50.904;9.192;2023-04-06T00:59:37;5.20;;;4.80;;
16731;SDS011;8484;50.904;9.192;2023-04-06T01:02:04;5.47;;;4.93;;
16731;SDS011;8484;50.904;9.192;2023-04-06T01:04:31;5.60;;;5.03;;
16731;SDS011;8484;50.904;9.192;2023-04-06T01:06:59;5.20;;;4.70;;
16731;SDS011;8484;50.904;9.192;2023-04-06T01:09:28;5.07;;;4.67;;
16731;SDS011;8484;50.904;9.192;2023-04-06T01:11:55;5.40;;;5.00;;
16731;SDS011;8484;50.904;9.192;2023-04-06T01:14:22;5.60;;;5.20;;
16731;SDS011;8484;50.904;9.192;2023-04-06T01:16:49;5.60;;;5.10;;
16731;SDS011;8484;50.904;9.192;2023-04-06T01:19:16;5.53;;;5.03;;
16731;SDS011;8484;50.904;9.192;2023-04-06T01:21:43;5.90;;;5.27;;
16731;SDS011;8484;50.904;9.192;2023-04-06T01:24:11;6.47;;;5.50;;
16731;SDS011;8484;50.904;9.192;2023-04-06T01:26:38;5.50;;;5.10;;
16731;SDS011;8484;50.904;9.192;2023-04-06T01:29:06;5.77;;;5.27;;
16731;SDS011;8484;50.904;9.192;2023-04-06T01:31:33;5.50;;;5.00;;
16731;SDS011;8484;50.904;9.192;2023-04-06T01:34:00;6.57;;;5.47;;
16731;SDS011;8484;50.904;9.192;2023-04-06T01:36:27;5.77;;;5.27;;
16731;SDS011;8484;50.904;9.192;2023-04-06T01:38:54;6.13;;;5.53;;
16731;SDS011;8484;50.904;9.192;2023-04-06T01:41:23;6.07;;;5.57;;
16731;SDS011;8484;50.904;9.192;2023-04-06T01:43:50;5.93;;;5.43;;
16731;SDS011;8484;50.904;9.192;2023-04-06T01:46:19;6.33;;;5.77;;
16731;SDS011;8484;50.904;9.192;2023-04-06T01:48:46;6.20;;;5.60;;
16731;SDS011;8484;50.904;9.192;2023-04-06T01:51:13;5.87;;;5.37;;
16731;SDS011;8484;50.904;9.192;2023-04-06T01:53:46;7.43;;;5.57;;
16731;SDS011;8484;50.904;9.192;2023-04-06T01:56:14;5.83;;;5.33;;
16731;SDS011;8484;50.904;9.192;2023-04-06T01:58:42;5.80;;;5.30;;
16731;SDS011;8484;50.904;9.192;2023-04-06T02:01:09;5.67;;;5.17;;
16731;SDS011;8484;50.904;9.192;2023-04-06T02:03:36;5.73;;;5.20;;
16731;SDS011;8484;50.904;9.192;2023-04-06T02:06:03;5.93;;;5.43;;
16731;SDS011;8484;50.904;9.192;2023-04-06T02:08:30;6.87;;;5.13;;
16731;SDS011;8484;50.904;9.192;2023-04-06T02:10:57;6.33;;;5.83;;
16731;SDS011;8484;50.904;9.192;2023-04-06T02:13:24;6.30;;;5.67;;
16731;SDS011;8484;50.904;9.192;2023-04-06T02:15:52;6.07;;;5.27;;
16731;SDS011;8484;50.904;9.192;2023-04-06T02:18:19;5.77;;;5.27;;
16731;SDS011;8484;50.904;9.192;2023-04-06T02:20:47;5.67;;;5.17;;
16731;SDS011;8484;50.904;9.192;2023-04-06T02:23:14;5.70;;;5.20;;
16731;SDS011;8484;50.904;9.192;2023-04-06T02:25:41;6.57;;;5.73;;
16731;SDS011;8484;50.904;9.192;2023-04-06T02:28:08;8.27;;;6.00;;
16731;SDS011;8484;50.904;9.192;2023-04-06T02:30:35;6.03;;;5.40;;
16731;SDS011;8484;50.904;9.192;2023-04-06T02:33:03;5.60;;;5.20;;
16731;SDS011;8484;50.904;9.192;2023-04-06T02:35:30;5.30;;;4.90;;
16731;SDS011;8484;50.904;9.192;2023-04-06T02:37:57;6.23;;;5.67;;
16731;SDS011;8484;50.904;9.192;2023-04-06T02:40:24;5.97;;;5.30;;
16731;SDS011;8484;50.904;9.192;2023-04-06T02:42:51;5.90;;;5.40;;
16731;SDS011;8484;50.904;9.192;2023-04-06T02:45:18;5.93;;;5.43;;
16731;SDS011;8484;50.904;9.192;2023-04-06T02:47:45;5.90;;;5.40;;
16731;SDS011;8484;50.904;9.192;2023-04-06T02:50:13;5.60;;;5.10;;
16731;SDS011;8484;50.904;9.192;2023-04-06T02:52:40;5.47;;;4.97;;
16731;SDS011;8484;50.904;9.192;2023-04-06T02:55:07;5.90;;;5.40;;
16731;SDS011;8484;50.904;9.192;2023-04-06T02:57:35;5.60;;;5.20;;
16731;SDS011;8484;50.904;9.192;2023-04-06T03:00:02;6.63;;;5.90;;
16731;SDS011;8484;50.904;9.192;2023-04-06T03:02:30;6.20;;;5.70;;
16731;SDS011;8484;50.904;9.192;2023-04-06T03:04:56;6.20;;;5.60;;
16731;SDS011;8484;50.904;9.192;2023-04-06T03:07:25;6.20;;;5.70;;
16731;SDS011;8484;50.904;9.192;2023-04-06T03:09:51;5.83;;;5.40;;
16731;SDS011;8484;50.904;9.192;2023-04-06T03:12:18;6.53;;;6.03;;
16731;SDS011;8484;50.904;9.192;2023-04-06T03:14:45;6.80;;;5.90;;
16731;SDS011;8484;50.904;9.192;2023-04-06T03:17:12;6.73;;;6.13;;
16731;SDS011;8484;50.904;9.192;2023-04-06T03:19:39;6.63;;;6.10;;
16731;SDS011;8484;50.904;9.192;2023-04-06T03:22:06;6.97;;;6.30;;
16731;SDS011;8484;50.904;9.192;2023-04-06T03:24:34;5.80;;;5.30;;
16731;SDS011;8484;50.904;9.192;2023-04-06T03:27:01;6.73;;;6.13;;
16731;SDS011;8484;50.904;9.192;2023-04-06T03:29:28;6.20;;;5.70;;
16731;SDS011;8484;50.904;9.192;2023-04-06T03:31:56;6.50;;;5.80;;
16731;SDS011;8484;50.904;9.192;2023-04-06T03:34:23;6.13;;;5.63;;
16731;SDS011;8484;50.904;9.192;2023-04-06T03:36:50;6.33;;;5.83;;
16731;SDS011;8484;50.904;9.192;2023-04-06T03:39:16;6.33;;;5.70;;
16731;SDS011;8484;50.904;9.192;2023-04-06T03:41:45;6.03;;;5.43;;
16731;SDS011;8484;50.904;9.192;2023-04-06T03:44:12;5.93;;;5.33;;
16731;SDS011;8484;50.904;9.192;2023-04-06T03:46:38;6.40;;;5.80;;
16731;SDS011;8484;50.904;9.192;2023-04-06T03:49:05;6.20;;;5.70;;
16731;SDS011;8484;50.904;9.192;2023-04-06T03:51:32;6.83;;;5.70;;
16731;SDS011;8484;50.904;9.192;2023-04-06T03:53:59;6.00;;;5.50;;
16731;SDS011;8484;50.904;9.192;2023-04-06T03:56:26;7.13;;;5.43;;
16731;SDS011;8484;50.904;9.192;2023-04-06T03:58:54;6.23;;;5.63;;
16731;SDS011;8484;50.904;9.192;2023-04-06T04:01:21;6.30;;;5.80;;
16731;SDS011;8484;50.904;9.192;2023-04-06T04:03:48;6.20;;;5.60;;
16731;SDS011;8484;50.904;9.192;2023-04-06T04:06:15;6.23;;;5.73;;
16731;SDS011;8484;50.904;9.192;2023-04-06T04:08:42;6.23;;;5.63;;
16731;SDS011;8484;50.904;9.192;2023-04-06T04:11:09;6.23;;;5.63;;
16731;SDS011;8484;50.904;9.192;2023-04-06T04:13:36;6.40;;;5.80;;
16731;SDS011;8484;50.904;9.192;2023-04-06T04:16:04;6.17;;;5.67;;
16731;SDS011;8484;50.904;9.192;2023-04-06T04:18:31;6.80;;;6.10;;
16731;SDS011;8484;50.904;9.192;2023-04-06T04:20:58;8.03;;;6.20;;
16731;SDS011;8484;50.904;9.192;2023-04-06T04:23:25;6.37;;;5.77;;
16731;SDS011;8484;50.904;9.192;2023-04-06T04:25:52;7.00;;;6.37;;
16731;SDS011;8484;50.904;9.192;2023-04-06T04:28:19;6.10;;;5.60;;
16731;SDS011;8484;50.904;9.192;2023-04-06T04:30:46;6.57;;;6.00;;
16731;SDS011;8484;50.904;9.192;2023-04-06T04:33:15;6.53;;;5.90;;
16731;SDS011;8484;50.904;9.192;2023-04-06T04:35:42;6.17;;;5.67;;
16731;SDS011;8484;50.904;9.192;2023-04-06T04:38:08;8.13;;;6.13;;
16731;SDS011;8484;50.904;9.192;2023-04-06T04:40:35;7.00;;;6.30;;
16731;SDS011;8484;50.904;9.192;2023-04-06T04:43:02;7.03;;;6.40;;
16731;SDS011;8484;50.904;9.192;2023-04-06T04:45:29;6.80;;;6.20;;
16731;SDS011;8484;50.904;9.192;2023-04-06T04:47:56;8.00;;;6.60;;
16731;SDS011;8484;50.904;9.192;2023-04-06T04:50:24;7.13;;;6.53;;
16731;SDS011;8484;50.904;9.192;2023-04-06T04:52:51;6.57;;;6.03;;
16731;SDS011;8484;50.904;9.192;2023-04-06T04:55:18;6.77;;;6.17;;
16731;SDS011;8484;50.904;9.192;2023-04-06T04:57:45;9.20;;;6.57;;
16731;SDS011;8484;50.904;9.192;2023-04-06T05:00:12;7.20;;;6.60;;
16731;SDS011;8484;50.904;9.192;2023-04-06T05:02:40;7.87;;;6.50;;
16731;SDS011;8484;50.904;9.192;2023-04-06T05:05:07;6.90;;;6.40;;
16731;SDS011;8484;50.904;9.192;2023-04-06T05:07:36;7.10;;;6.40;;
16731;SDS011;8484;50.904;9.192;2023-04-06T05:10:03;7.63;;;6.80;;
16731;SDS011;8484;50.904;9.192;2023-04-06T05:12:30;7.10;;;6.30;;
16731;SDS011;8484;50.904;9.192;2023-04-06T05:14:57;9.53;;;7.10;;
16731;SDS011;8484;50.904;9.192;2023-04-06T05:17:25;7.77;;;7.03;;
16731;SDS011;8484;50.904;9.192;2023-04-06T05:19:52;7.57;;;6.87;;
16731;SDS011;8484;50.904;9.192;2023-04-06T05:22:18;8.10;;;7.30;;
16731;SDS011;8484;50.904;9.192;2023-04-06T05:24:47;7.20;;;6.60;;
16731;SDS011;8484;50.904;9.192;2023-04-06T05:27:13;6.83;;;6.23;;
16731;SDS011;8484;50.904;9.192;2023-04-06T05:29:40;7.13;;;6.10;;
16731;SDS011;8484;50.904;9.192;2023-04-06T05:32:07;7.53;;;6.80;;
16731;SDS011;8484;50.904;9.192;2023-04-06T05:34:34;7.27;;;6.57;;
16731;SDS011;8484;50.904;9.192;2023-04-06T05:37:01;7.17;;;6.57;;
16731;SDS011;8484;50.904;9.192;2023-04-06T05:39:28;7.47;;;6.77;;
16731;SDS011;8484;50.904;9.192;2023-04-06T05:41:57;7.63;;;6.93;;
16731;SDS011;8484;50.904;9.192;2023-04-06T05:44:24;7.00;;;6.40;;
16731;SDS011;8484;50.904;9.192;2023-04-06T05:46:51;6.87;;;6.27;;
16731;SDS011;8484;50.904;9.192;2023-04-06T05:49:18;6.83;;;6.23;;
16731;SDS011;8484;50.904;9.192;2023-04-06T05:51:45;6.63;;;6.03;;
16731;SDS011;8484;50.904;9.192;2023-04-06T05:54:12;7.20;;;6.13;;
16731;SDS011;8484;50.904;9.192;2023-04-06T05:56:39;7.50;;;6.53;;
16731;SDS011;8484;50.904;9.192;2023-04-06T05:59:07;7.47;;;6.77;;
16731;SDS011;8484;50.904;9.192;2023-04-06T06:01:34;6.73;;;6.17;;
16731;SDS011;8484;50.904;9.192;2023-04-06T06:04:01;6.93;;;6.23;;
16731;SDS011;8484;50.904;9.192;2023-04-06T06:06:28;7.07;;;6.37;;
16731;SDS011;8484;50.904;9.192;2023-04-06T06:08:56;7.37;;;6.67;;
16731;SDS011;8484;50.904;9.192;2023-04-06T06:11:24;7.00;;;6.40;;
16731;SDS011;8484;50.904;9.192;2023-04-06T06:13:51;6.80;;;6.20;;
16731;SDS011;8484;50.904;9.192;2023-04-06T06:16:19;6.60;;;6.07;;
16731;SDS011;8484;50.904;9.192;2023-04-06T06:18:46;6.37;;;5.70;;
16731;SDS011;8484;50.904;9.192;2023-04-06T06:21:13;6.60;;;6.00;;
16731;SDS011;8484;50.904;9.192;2023-04-06T06:23:42;8.67;;;6.87;;
16731;SDS011;8484;50.904;9.192;2023-04-06T06:26:09;8.90;;;6.43;;
16731;SDS011;8484;50.904;9.192;2023-04-06T06:28:35;6.93;;;6.33;;
16731;SDS011;8484;50.904;9.192;2023-04-06T06:31:02;7.23;;;6.63;;
16731;SDS011;8484;50.904;9.192;2023-04-06T06:33:31;8.17;;;7.37;;
16731;SDS011;8484;50.904;9.192;2023-04-06T06:35:57;12.07;;;7.67;;
16731;SDS011;8484;50.904;9.192;2023-04-06T06:38:24;8.23;;;7.50;;
16731;SDS011;8484;50.904;9.192;2023-04-06T06:40:51;7.70;;;7.00;;
16731;SDS011;8484;50.904;9.192;2023-04-06T06:43:19;6.93;;;6.33;;
16731;SDS011;8484;50.904;9.192;2023-04-06T06:45:45;6.80;;;6.03;;
16731;SDS011;8484;50.904;9.192;2023-04-06T06:48:12;6.37;;;5.87;;
16731;SDS011;8484;50.904;9.192;2023-04-06T06:50:40;6.90;;;6.00;;
16731;SDS011;8484;50.904;9.192;2023-04-06T06:53:07;6.37;;;5.87;;
16731;SDS011;8484;50.904;9.192;2023-04-06T06:55:34;6.07;;;5.57;;
16731;SDS011;8484;50.904;9.192;2023-04-06T06:58:02;5.60;;;5.17;;
16731;SDS011;8484;50.904;9.192;2023-04-06T07:00:29;6.20;;;5.70;;
16731;SDS011;8484;50.904;9.192;2023-04-06T07:02:56;5.83;;;5.30;;
16731;SDS011;8484;50.904;9.192;2023-04-06T07:05:22;5.87;;;5.20;;
16731;SDS011;8484;50.904;9.192;2023-04-06T07:07:51;5.83;;;5.33;;
16731;SDS011;8484;50.904;9.192;2023-04-06T07:10:18;6.80;;;6.03;;
16731;SDS011;8484;50.904;9.192;2023-04-06T07:12:45;5.70;;;5.20;;
16731;SDS011;8484;50.904;9.192;2023-04-06T07:15:12;5.97;;;5.47;;
16731;SDS011;8484;50.904;9.192;2023-04-06T07:17:39;5.80;;;5.30;;
16731;SDS011;8484;50.904;9.192;2023-04-06T07:20:06;6.20;;;5.10;;
16731;SDS011;8484;50.904;9.192;2023-04-06T07:22:34;5.70;;;5.20;;
16731;SDS011;8484;50.904;9.192;2023-04-06T07:25:02;5.63;;;5.13;;
16731;SDS011;8484;50.904;9.192;2023-04-06T07:27:29;5.93;;;5.43;;
16731;SDS011;8484;50.904;9.192;2023-04-06T07:29:56;5.90;;;5.40;;
16731;SDS011;8484;50.904;9.192;2023-04-06T07:32:23;5.80;;;5.30;;
16731;SDS011;8484;50.904;9.192;2023-04-06T07:34:50;5.50;;;4.93;;
16731;SDS011;8484;50.904;9.192;2023-04-06T07:37:16;5.40;;;4.90;;
16731;SDS011;8484;50.904;9.192;2023-04-06T07:39:43;5.90;;;5.40;;
16731;SDS011;8484;50.904;9.192;2023-04-06T07:42:12;6.13;;;5.63;;
16731;SDS011;8484;50.904;9.192;2023-04-06T07:44:39;6.03;;;5.53;;
16731;SDS011;8484;50.904;9.192;2023-04-06T07:47:06;7.23;;;6.03;;
16731;SDS011;8484;50.904;9.192;2023-04-06T07:49:33;5.80;;;5.30;;
16731;SDS011;8484;50.904;9.192;2023-04-06T07:52:00;7.00;;;5.50;;
16731;SDS011;8484;50.904;9.192;2023-04-06T07:54:28;5.63;;;5.13;;
16731;SDS011;8484;50.904;9.192;2023-04-06T07:56:54;5.77;;;5.00;;
16731;SDS011;8484;50.904;9.192;2023-04-06T07:59:23;5.60;;;5.10;;
16731;SDS011;8484;50.904;9.192;2023-04-06T08:01:49;5.90;;;5.30;;
16731;SDS011;8484;50.904;9.192;2023-04-06T08:04:16;5.50;;;5.00;;
16731;SDS011;8484;50.904;9.192;2023-04-06T08:06:43;5.77;;;5.20;;
16731;SDS011;8484;50.904;9.192;2023-04-06T08:09:10;5.03;;;4.63;;
16731;SDS011;8484;50.904;9.192;2023-04-06T08:11:37;5.10;;;4.70;;
16731;SDS011;8484;50.904;9.192;2023-04-06T08:14:04;5.20;;;4.80;;
16731;SDS011;8484;50.904;9.192;2023-04-06T08:16:32;5.33;;;4.90;;
16731;SDS011;8484;50.904;9.192;2023-04-06T08:18:59;5.63;;;5.13;;
16731;SDS011;8484;50.904;9.192;2023-04-06T08:21:26;5.60;;;5.20;;
16731;SDS011;8484;50.904;9.192;2023-04-06T08:23:53;5.07;;;4.67;;
16731;SDS011;8484;50.904;9.192;2023-04-06T08:26:20;6.33;;;4.70;;
16731;SDS011;8484;50.904;9.192;2023-04-06T08:28:47;5.30;;;4.80;;
16731;SDS011;8484;50.904;9.192;2023-04-06T08:31:14;5.43;;;4.93;;
16731;SDS011;8484;50.904;9.192;2023-04-06T08:33:42;6.47;;;5.83;;
16731;SDS011;8484;50.904;9.192;2023-04-06T08:36:09;5.90;;;5.40;;
16731;SDS011;8484;50.904;9.192;2023-04-06T08:38:37;6.67;;;5.60;;
16731;SDS011;8484;50.904;9.192;2023-04-06T08:41:08;6.50;;;5.90;;
16731;SDS011;8484;50.904;9.192;2023-04-06T08:43:36;6.60;;;5.97;;
16731;SDS011;8484;50.904;9.192;2023-04-06T08:46:07;6.73;;;6.13;;
16731;SDS011;8484;50.904;9.192;2023-04-06T08:48:35;6.73;;;6.10;;
16731;SDS011;8484;50.904;9.192;2023-04-06T08:51:04;7.00;;;6.40;;
16731;SDS011;8484;50.904;9.192;2023-04-06T08:53:31;5.83;;;5.33;;
16731;SDS011;8484;50.904;9.192;2023-04-06T08:55:58;6.07;;;5.40;;
16731;SDS011;8484;50.904;9.192;2023-04-06T08:58:27;5.90;;;5.40;;
16731;SDS011;8484;50.904;9.192;2023-04-06T09:00:57;5.90;;;5.40;;
16731;SDS011;8484;50.904;9.192;2023-04-06T09:03:25;5.60;;;5.10;;
16731;SDS011;8484;50.904;9.192;2023-04-06T09:05:54;5.50;;;5.00;;
16731;SDS011;8484;50.904;9.192;2023-04-06T09:08:22;5.23;;;4.77;;
16731;SDS011;8484;50.904;9.192;2023-04-06T09:10:50;5.60;;;5.10;;
16731;SDS011;8484;50.904;9.192;2023-04-06T09:13:17;5.30;;;4.80;;
16731;SDS011;8484;50.904;9.192;2023-04-06T09:15:44;5.83;;;5.33;;
16731;SDS011;8484;50.904;9.192;2023-04-06T09:18:10;5.60;;;5.10;;
16731;SDS011;8484;50.904;9.192;2023-04-06T09:20:37;5.00;;;4.60;;
16731;SDS011;8484;50.904;9.192;2023-04-06T09:23:04;8.87;;;4.63;;
16731;SDS011;8484;50.904;9.192;2023-04-06T09:25:33;5.27;;;4.87;;
16731;SDS011;8484;50.904;9.192;2023-04-06T09:28:00;7.17;;;5.20;;
16731;SDS011;8484;50.904;9.192;2023-04-06T09:30:28;5.50;;;5.00;;
16731;SDS011;8484;50.904;9.192;2023-04-06T09:32:55;5.43;;;4.97;;
16731;SDS011;8484;50.904;9.192;2023-04-06T09:35:24;5.43;;;4.93;;
16731;SDS011;8484;50.904;9.192;2023-04-06T09:37:53;5.60;;;5.10;;
16731;SDS011;8484;50.904;9.192;2023-04-06T09:40:20;5.40;;;4.90;;
16731;SDS011;8484;50.904;9.192;2023-04-06T09:42:49;5.73;;;5.00;;
16731;SDS011;8484;50.904;9.192;2023-04-06T09:45:19;5.70;;;5.20;;
16731;SDS011;8484;50.904;9.192;2023-04-06T09:47:46;5.30;;;4.80;;
16731;SDS011;8484;50.904;9.192;2023-04-06T09:50:15;5.70;;;5.20;;
16731;SDS011;8484;50.904;9.192;2023-04-06T09:52:42;5.77;;;5.27;;
16731;SDS011;8484;50.904;9.192;2023-04-06T09:55:16;6.10;;;5.43;;
16731;SDS011;8484;50.904;9.192;2023-04-06T09:57:52;5.70;;;5.20;;
16731;SDS011;8484;50.904;9.192;2023-04-06T10:00:24;5.47;;;4.97;;
16731;SDS011;8484;50.904;9.192;2023-04-06T10:02:55;5.60;;;5.10;;
16731;SDS011;8484;50.904;9.192;2023-04-06T10:05:26;5.50;;;5.00;;
16731;SDS011;8484;50.904;9.192;2023-04-06T10:07:59;6.33;;;5.53;;
16731;SDS011;8484;50.904;9.192;2023-04-06T10:10:30;5.77;;;5.27;;
16731;SDS011;8484;50.904;9.192;2023-04-06T10:12:59;5.83;;;5.20;;
16731;SDS011;8484;50.904;9.192;2023-04-06T10:15:27;6.37;;;5.63;;
16731;SDS011;8484;50.904;9.192;2023-04-06T10:17:55;5.80;;;5.30;;
16731;SDS011;8484;50.904;9.192;2023-04-06T10:20:23;5.93;;;5.43;;
16731;SDS011;8484;50.904;9.192;2023-04-06T10:22:57;5.83;;;5.33;;
16731;SDS011;8484;50.904;9.192;2023-04-06T10:25:28;6.20;;;5.70;;
16731;SDS011;8484;50.904;9.192;2023-04-06T10:28:00;6.27;;;5.67;;
16731;SDS011;8484;50.904;9.192;2023-04-06T10:30:28;7.23;;;5.70;;
16731;SDS011;8484;50.904;9.192;2023-04-06T10:32:55;6.20;;;5.60;;
16731;SDS011;8484;50.904;9.192;2023-04-06T10:35:22;6.90;;;5.97;;
16731;SDS011;8484;50.904;9.192;2023-04-06T10:37:51;6.20;;;5.60;;
16731;SDS011;8484;50.904;9.192;2023-04-06T10:40:30;6.33;;;5.73;;
16731;SDS011;8484;50.904;9.192;2023-04-06T10:43:08;7.00;;;6.30;;
16731;SDS011;8484;50.904;9.192;2023-04-06T10:45:36;6.53;;;5.60;;
16731;SDS011;8484;50.904;9.192;2023-04-06T10:48:12;8.83;;;6.17;;
16731;SDS011;8484;50.904;9.192;2023-04-06T10:50:41;6.93;;;6.33;;
16731;SDS011;8484;50.904;9.192;2023-04-06T10:53:08;6.30;;;5.70;;
16731;SDS011;8484;50.904;9.192;2023-04-06T10:55:34;6.07;;;5.50;;
16731;SDS011;8484;50.904;9.192;2023-04-06T10:58:07;5.57;;;5.07;;
16731;SDS011;8484;50.904;9.192;2023-04-06T11:00:35;6.43;;;5.80;;
16731;SDS011;8484;50.904;9.192;2023-04-06T11:03:09;6.17;;;5.57;;
16731;SDS011;8484;50.904;9.192;2023-04-06T11:05:36;6.17;;;5.57;;
16731;SDS011;8484;50.904;9.192;2023-04-06T11:08:03;6.53;;;5.57;;
16731;SDS011;8484;50.904;9.192;2023-04-06T11:10:30;6.07;;;5.47;;
16731;SDS011;8484;50.904;9.192;2023-04-06T11:12:57;6.07;;;5.43;;
16731;SDS011;8484;50.904;9.192;2023-04-06T11:15:25;6.47;;;5.40;;
16731;SDS011;8484;50.904;9.192;2023-04-06T11:17:52;6.43;;;5.63;;
16731;SDS011;8484;50.904;9.192;2023-04-06T11:20:19;5.80;;;5.30;;
16731;SDS011;8484;50.904;9.192;2023-04-06T11:22:49;5.90;;;5.30;;
16731;SDS011;8484;50.904;9.192;2023-04-06T11:25:17;5.70;;;5.20;;
16731;SDS011;8484;50.904;9.192;2023-04-06T11:27:45;6.30;;;5.70;;
16731;SDS011;8484;50.904;9.192;2023-04-06T11:30:13;5.70;;;5.10;;
16731;SDS011;8484;50.904;9.192;2023-04-06T11:32:42;6.03;;;5.43;;
16731;SDS011;8484;50.904;9.192;2023-04-06T11:35:11;5.77;;;5.27;;
16731;SDS011;8484;50.904;9.192;2023-04-06T11:37:45;5.47;;;4.97;;
16731;SDS011;8484;50.904;9.192;2023-04-06T11:40:12;5.80;;;5.30;;
16731;SDS011;8484;50.904;9.192;2023-04-06T11:42:39;5.73;;;5.13;;
16731;SDS011;8484;50.904;9.192;2023-04-06T11:45:06;6.30;;;5.73;;
16731;SDS011;8484;50.904;9.192;2023-04-06T11:47:34;6.07;;;5.53;;
16731;SDS011;8484;50.904;9.192;2023-04-06T11:50:07;5.60;;;5.13;;
16731;SDS011;8484;50.904;9.192;2023-04-06T11:52:35;6.20;;;5.60;;
16731;SDS011;8484;50.904;9.192;2023-04-06T11:55:12;6.93;;;6.27;;
16731;SDS011;8484;50.904;9.192;2023-04-06T11:57:41;6.70;;;5.97;;
16731;SDS011;8484;50.904;9.192;2023-04-06T12:00:08;6.87;;;5.80;;
16731;SDS011;8484;50.904;9.192;2023-04-06T12:02:37;6.03;;;5.50;;
16731;SDS011;8484;50.904;9.192;2023-04-06T12:05:04;6.03;;;4.77;;
16731;SDS011;8484;50.904;9.192;2023-04-06T12:07:34;5.20;;;4.80;;
16731;SDS011;8484;50.904;9.192;2023-04-06T12:10:01;5.60;;;5.10;;
16731;SDS011;8484;50.904;9.192;2023-04-06T12:12:29;6.23;;;5.63;;
16731;SDS011;8484;50.904;9.192;2023-04-06T12:14:56;5.57;;;5.07;;
16731;SDS011;8484;50.904;9.192;2023-04-06T12:17:23;6.37;;;5.77;;
16731;SDS011;8484;50.904;9.192;2023-04-06T12:19:50;5.77;;;5.27;;
16731;SDS011;8484;50.904;9.192;2023-04-06T12:22:18;6.13;;;5.63;;
16731;SDS011;8484;50.904;9.192;2023-04-06T12:24:45;5.50;;;5.10;;
16731;SDS011;8484;50.904;9.192;2023-04-06T12:27:12;5.70;;;5.10;;
16731;SDS011;8484;50.904;9.192;2023-04-06T12:29:39;5.07;;;4.60;;
16731;SDS011;8484;50.904;9.192;2023-04-06T12:32:07;5.60;;;5.10;;
16731;SDS011;8484;50.904;9.192;2023-04-06T12:34:34;6.83;;;5.20;;
16731;SDS011;8484;50.904;9.192;2023-04-06T12:37:01;6.10;;;5.53;;
16731;SDS011;8484;50.904;9.192;2023-04-06T12:39:29;5.77;;;5.27;;
16731;SDS011;8484;50.904;9.192;2023-04-06T12:41:56;5.50;;;5.00;;
16731;SDS011;8484;50.904;9.192;2023-04-06T12:44:23;5.97;;;5.47;;
16731;SDS011;8484;50.904;9.192;2023-04-06T12:46:50;7.50;;;4.93;;
16731;SDS011;8484;50.904;9.192;2023-04-06T12:49:17;5.90;;;5.30;;
16731;SDS011;8484;50.904;9.192;2023-04-06T12:51:44;6.33;;;5.40;;
16731;SDS011;8484;50.904;9.192;2023-04-06T12:54:11;6.17;;;5.67;;
16731;SDS011;8484;50.904;9.192;2023-04-06T12:56:39;6.27;;;5.67;;
16731;SDS011;8484;50.904;9.192;2023-04-06T12:59:06;5.77;;;5.27;;
16731;SDS011;8484;50.904;9.192;2023-04-06T13:01:33;6.67;;;5.20;;
16731;SDS011;8484;50.904;9.192;2023-04-06T13:04:00;6.93;;;5.33;;
16731;SDS011;8484;50.904;9.192;2023-04-06T13:06:27;5.67;;;5.17;;
16731;SDS011;8484;50.904;9.192;2023-04-06T13:08:55;5.47;;;4.97;;
16731;SDS011;8484;50.904;9.192;2023-04-06T13:11:22;5.60;;;5.10;;
16731;SDS011;8484;50.904;9.192;2023-04-06T13:13:51;6.00;;;5.50;;
16731;SDS011;8484;50.904;9.192;2023-04-06T13:16:18;6.57;;;5.27;;
16731;SDS011;8484;50.904;9.192;2023-04-06T13:18:46;5.83;;;5.37;;
16731;SDS011;8484;50.904;9.192;2023-04-06T13:21:13;7.77;;;5.50;;
16731;SDS011;8484;50.904;9.192;2023-04-06T13:23:42;6.20;;;5.60;;
16731;SDS011;8484;50.904;9.192;2023-04-06T13:26:09;6.37;;;5.13;;
16731;SDS011;8484;50.904;9.192;2023-04-06T13:28:38;5.87;;;5.37;;
16731;SDS011;8484;50.904;9.192;2023-04-06T13:31:06;5.53;;;5.13;;
16731;SDS011;8484;50.904;9.192;2023-04-06T13:33:34;5.77;;;5.20;;
16731;SDS011;8484;50.904;9.192;2023-04-06T13:36:02;6.00;;;5.40;;
16731;SDS011;8484;50.904;9.192;2023-04-06T13:38:29;5.90;;;5.37;;
16731;SDS011;8484;50.904;9.192;2023-04-06T13:40:56;6.10;;;5.60;;
16731;SDS011;8484;50.904;9.192;2023-04-06T13:43:23;6.93;;;5.43;;
16731;SDS011;8484;50.904;9.192;2023-04-06T13:45:52;5.97;;;5.40;;
16731;SDS011;8484;50.904;9.192;2023-04-06T13:48:22;5.73;;;5.13;;
16731;SDS011;8484;50.904;9.192;2023-04-06T13:50:49;5.90;;;5.40;;
16731;SDS011;8484;50.904;9.192;2023-04-06T13:53:16;6.80;;;6.20;;
16731;SDS011;8484;50.904;9.192;2023-04-06T13:55:43;5.87;;;5.37;;
16731;SDS011;8484;50.904;9.192;2023-04-06T13:58:18;6.23;;;5.63;;
16731;SDS011;8484;50.904;9.192;2023-04-06T14:00:44;6.00;;;5.40;;
16731;SDS011;8484;50.904;9.192;2023-04-06T14:03:11;6.50;;;5.90;;
16731;SDS011;8484;50.904;9.192;2023-04-06T14:05:40;7.63;;;6.43;;
16731;SDS011;8484;50.904;9.192;2023-04-06T14:08:06;6.60;;;5.93;;
16731;SDS011;8484;50.904;9.192;2023-04-06T14:10:36;5.57;;;5.07;;
16731;SDS011;8484;50.904;9.192;2023-04-06T14:13:03;6.97;;;5.60;;
16731;SDS011;8484;50.904;9.192;2023-04-06T14:15:30;8.00;;;5.70;;
16731;SDS011;8484;50.904;9.192;2023-04-06T14:17:57;6.33;;;5.70;;
16731;SDS011;8484;50.904;9.192;2023-04-06T14:23:12;6.80;;;6.20;;
16731;SDS011;8484;50.904;9.192;2023-04-06T14:25:39;6.07;;;5.47;;
16731;SDS011;8484;50.904;9.192;2023-04-06T14:28:06;6.80;;;6.10;;
16731;SDS011;8484;50.904;9.192;2023-04-06T14:30:33;6.50;;;5.90;;
16731;SDS011;8484;50.904;9.192;2023-04-06T14:32:59;7.17;;;6.10;;
16731;SDS011;8484;50.904;9.192;2023-04-06T14:35:27;6.37;;;5.77;;
16731;SDS011;8484;50.904;9.192;2023-04-06T14:38:01;6.43;;;5.70;;
16731;SDS011;8484;50.904;9.192;2023-04-06T14:40:29;6.27;;;5.70;;
16731;SDS011;8484;50.904;9.192;2023-04-06T14:42:56;6.37;;;5.13;;
16731;SDS011;8484;50.904;9.192;2023-04-06T14:45:23;6.37;;;5.77;;
16731;SDS011;8484;50.904;9.192;2023-04-06T14:47:50;5.63;;;5.17;;
16731;SDS011;8484;50.904;9.192;2023-04-06T14:50:16;6.13;;;5.30;;
16731;SDS011;8484;50.904;9.192;2023-04-06T14:52:43;5.73;;;5.23;;
16731;SDS011;8484;50.904;9.192;2023-04-06T14:55:12;6.17;;;5.57;;
16731;SDS011;8484;50.904;9.192;2023-04-06T14:57:41;5.57;;;5.07;;
16731;SDS011;8484;50.904;9.192;2023-04-06T15:00:08;6.40;;;5.80;;
16731;SDS011;8484;50.904;9.192;2023-04-06T15:02:35;6.00;;;5.40;;
16731;SDS011;8484;50.904;9.192;2023-04-06T15:05:03;6.07;;;5.47;;